createdAt,value
2022-08-12T00:01:13.867Z,2.53
2022-08-12T00:04:00.007Z,4.63
2022-08-12T00:06:47.753Z,2.75
2022-08-12T00:09:33.632Z,2.30
2022-08-12T00:12:20.454Z,3.70
2022-08-12T00:15:08.392Z,3.10
2022-08-12T00:17:54.885Z,2.72
2022-08-12T00:23:27.115Z,2.10
2022-08-12T00:26:22.860Z,3.30
2022-08-12T00:29:12.162Z,4.78
2022-08-12T00:32:00.343Z,3.28
2022-08-12T00:34:51.615Z,2.28
2022-08-12T00:37:40.646Z,3.55
2022-08-12T00:40:29.919Z,5.57
2022-08-12T00:42:59.158Z,5.22
2022-08-12T00:45:27.159Z,4.60
2022-08-12T00:47:54.769Z,3.33
2022-08-12T00:50:23.708Z,2.28
2022-08-12T00:52:53.165Z,3.33
2022-08-12T00:55:21.796Z,3.20
2022-08-12T00:57:50.736Z,2.85
2022-08-12T01:00:22.090Z,2.38
2022-08-12T01:02:52.723Z,3.38
2022-08-12T01:05:41.538Z,3.25
2022-08-12T01:08:28.599Z,2.70
2022-08-12T01:11:15.259Z,4.32
2022-08-12T01:13:47.811Z,6.65
2022-08-12T01:16:22.530Z,4.20
2022-08-12T01:18:53.706Z,4.43
2022-08-12T01:21:27.104Z,5.93
2022-08-12T01:24:56.108Z,3.78
2022-08-12T01:27:25.713Z,5.95
2022-08-12T01:29:57.068Z,3.65
2022-08-12T01:32:28.129Z,3.63
2022-08-12T01:35:17.694Z,3.53
2022-08-12T01:37:55.481Z,4.03
2022-08-12T01:40:34.259Z,3.33
2022-08-12T01:43:10.714Z,4.65
2022-08-12T01:45:52.484Z,4.38
2022-08-12T01:48:53.310Z,3.65
2022-08-12T01:52:15.033Z,4.20
2022-08-12T01:54:43.819Z,3.72
2022-08-12T01:57:57.913Z,3.42
2022-08-12T02:00:13.772Z,7.07
2022-08-12T02:03:15.147Z,3.70
2022-08-12T02:06:08.265Z,4.45
2022-08-12T02:09:04.730Z,2.60
2022-08-12T02:11:35.589Z,3.20
2022-08-12T02:14:28.940Z,5.07
2022-08-12T02:17:54.757Z,2.97
2022-08-12T02:20:51.507Z,5.38
2022-08-12T02:23:28.207Z,4.70
2022-08-12T02:25:59.599Z,3.35
2022-08-12T02:28:28.077Z,3.17
2022-08-12T02:30:57.075Z,3.60
2022-08-12T02:33:25.636Z,3.40
2022-08-12T02:35:54.076Z,3.83
2022-08-12T02:38:23.710Z,3.80
2022-08-12T02:40:54.770Z,3.88
2022-08-12T02:43:29.553Z,3.45
2022-08-12T02:46:13.381Z,4.72
2022-08-12T02:49:03.275Z,3.88
2022-08-12T02:51:34.571Z,2.55
2022-08-12T02:54:06.157Z,4.55
2022-08-12T02:56:40.995Z,5.15
2022-08-12T02:59:12.440Z,2.78
2022-08-12T03:01:48.227Z,2.72
2022-08-12T03:04:43.870Z,4.30
2022-08-12T03:07:16.655Z,3.78
2022-08-12T03:10:04.912Z,3.05
2022-08-12T03:12:49.356Z,3.08
2022-08-12T03:15:22.922Z,3.40
2022-08-12T03:18:26.161Z,5.68
2022-08-12T03:20:48.747Z,6.45
2022-08-12T03:23:28.672Z,3.13
2022-08-12T03:25:59.028Z,3.72
2022-08-12T03:28:48.962Z,4.30
2022-08-12T03:31:19.790Z,3.83
2022-08-12T03:34:00.555Z,5.72
2022-08-12T03:36:35.442Z,3.50
2022-08-12T03:39:16.987Z,4.03
2022-08-12T03:42:11.334Z,2.90
2022-08-12T03:45:19.571Z,3.17
2022-08-12T03:48:18.610Z,3.15
2022-08-12T03:51:07.000Z,4.45
2022-08-12T03:53:53.953Z,3.88
2022-08-12T03:56:40.030Z,3.40
2022-08-12T03:59:26.936Z,2.47
2022-08-12T04:01:58.231Z,4.22
2022-08-12T04:04:34.213Z,3.38
2022-08-12T04:07:04.579Z,2.42
2022-08-12T04:09:32.644Z,2.75
2022-08-12T04:12:18.898Z,3.70
2022-08-12T04:14:46.947Z,2.53
2022-08-12T04:17:16.223Z,4.82
2022-08-12T04:19:44.951Z,2.83
2022-08-12T04:22:12.568Z,3.47
2022-08-12T04:24:41.516Z,2.63
2022-08-12T04:27:11.070Z,5.68
2022-08-12T04:30:30.252Z,3.08
2022-08-12T04:32:28.219Z,5.05
2022-08-12T04:34:56.505Z,2.55
2022-08-12T04:37:24.119Z,2.58
2022-08-12T04:39:52.671Z,5.55
2022-08-12T04:42:21.358Z,3.63
2022-08-12T04:44:48.984Z,2.00
2022-08-12T04:47:17.467Z,5.40
2022-08-12T04:49:48.221Z,5.30
2022-08-12T04:52:16.101Z,3.40
2022-08-12T04:54:44.182Z,3.58
2022-08-12T04:57:11.950Z,4.70
2022-08-12T04:59:47.276Z,2.40
2022-08-12T05:02:20.912Z,2.92
2022-08-12T05:05:00.998Z,3.83
2022-08-12T05:07:29.097Z,4.78
2022-08-12T05:10:00.853Z,3.80
2022-08-12T05:12:39.734Z,3.40
2022-08-12T05:15:19.242Z,4.28
2022-08-12T05:17:56.162Z,2.58
2022-08-12T05:20:27.383Z,2.70
2022-08-12T05:23:17.531Z,3.42
2022-08-12T05:25:47.999Z,5.00
2022-08-12T05:28:16.767Z,2.80
2022-08-12T05:30:45.836Z,2.40
2022-08-12T05:33:15.714Z,2.72
2022-08-12T05:35:45.035Z,3.17
2022-08-12T05:38:33.460Z,2.50
2022-08-12T05:41:02.741Z,5.30
2022-08-12T05:43:33.151Z,3.45
2022-08-12T05:46:00.770Z,4.03
2022-08-12T05:48:28.444Z,3.05
2022-08-12T05:50:56.805Z,2.40
2022-08-12T05:53:24.677Z,3.13
2022-08-12T05:55:53.679Z,4.25
2022-08-12T05:58:21.321Z,4.00
2022-08-12T06:00:48.892Z,4.03
2022-08-12T06:03:19.601Z,3.30
2022-08-12T06:05:55.608Z,3.30
2022-08-12T06:10:52.108Z,3.80
2022-08-12T06:13:25.694Z,2.50
2022-08-12T06:15:57.075Z,2.05
2022-08-12T06:18:29.333Z,2.33
2022-08-12T06:21:01.834Z,2.67
2022-08-12T06:23:30.557Z,1.77
2022-08-12T06:25:59.113Z,1.40
2022-08-12T06:28:28.168Z,1.60
2022-08-12T06:31:24.184Z,2.50
2022-08-12T06:33:55.452Z,2.08
2022-08-12T06:36:29.981Z,1.42
2022-08-12T06:39:00.289Z,2.28
2022-08-12T06:42:30.591Z,1.95
2022-08-12T06:44:34.208Z,3.30
2022-08-12T06:47:01.805Z,3.15
2022-08-12T06:49:33.554Z,3.28
2022-08-12T06:52:01.128Z,1.95
2022-08-12T06:54:31.531Z,1.85
2022-08-12T06:57:57.382Z,2.63
2022-08-12T06:59:48.641Z,2.22
2022-08-12T07:02:16.208Z,3.72
2022-08-12T07:04:43.819Z,2.30
2022-08-12T07:07:12.599Z,3.80
2022-08-12T07:10:04.500Z,2.60
2022-08-12T07:12:30.986Z,3.28
2022-08-12T07:14:59.750Z,3.17
2022-08-12T07:17:37.434Z,1.40
2022-08-12T07:20:51.275Z,6.43
2022-08-12T07:23:01.405Z,1.83
2022-08-12T07:25:40.304Z,2.00
2022-08-12T07:28:17.519Z,3.45
2022-08-12T07:30:48.561Z,1.35
2022-08-12T07:33:17.842Z,1.20
2022-08-12T07:35:47.915Z,1.75
2022-08-12T07:38:30.528Z,0.90
2022-08-12T07:41:03.383Z,0.80
2022-08-12T07:43:32.783Z,2.40
2022-08-12T07:46:00.976Z,1.08
2022-08-12T07:48:34.454Z,1.30
2022-08-12T07:51:02.062Z,0.70
2022-08-12T07:53:29.621Z,1.80
2022-08-12T07:55:57.385Z,3.50
2022-08-12T07:58:25.550Z,0.85
2022-08-12T08:00:57.491Z,1.15
2022-08-12T08:03:25.909Z,0.70
2022-08-12T08:05:53.705Z,0.70
2022-08-12T08:08:25.533Z,0.80
2022-08-12T08:11:17.219Z,0.80
2022-08-12T08:13:47.247Z,1.50
2022-08-12T08:16:15.331Z,1.55
2022-08-12T08:18:44.769Z,1.85
2022-08-12T08:21:12.385Z,1.27
2022-08-12T08:24:02.032Z,2.47
2022-08-12T08:26:32.791Z,2.15
2022-08-12T08:29:03.043Z,3.65
2022-08-12T08:31:31.850Z,1.23
2022-08-12T08:34:14.221Z,2.63
2022-08-12T08:36:47.042Z,2.65
2022-08-12T08:39:24.748Z,0.88
2022-08-12T08:42:16.031Z,1.50
2022-08-12T08:44:49.673Z,0.88
2022-08-12T08:47:26.152Z,1.50
2022-08-12T08:49:54.839Z,1.95
2022-08-12T08:52:38.873Z,2.22
2022-08-12T08:55:18.624Z,1.10
2022-08-12T08:57:51.422Z,1.83
2022-08-12T09:00:21.856Z,1.25
2022-08-12T09:02:59.274Z,1.17
2022-08-12T09:05:43.167Z,3.03
2022-08-12T09:08:22.332Z,2.00
2022-08-12T09:10:50.621Z,2.00
2022-08-12T09:14:10.684Z,1.70
2022-08-12T09:16:19.966Z,1.30
2022-08-12T09:18:52.683Z,2.78
2022-08-12T09:21:23.244Z,1.33
2022-08-12T09:23:58.944Z,2.25
2022-08-12T09:26:45.969Z,1.05
2022-08-12T09:30:11.669Z,1.95
2022-08-12T09:32:29.518Z,2.35
2022-08-12T09:34:57.586Z,2.58
2022-08-12T09:37:26.784Z,1.60
2022-08-12T09:40:05.580Z,1.02
2022-08-12T09:43:16.713Z,2.00
2022-08-12T09:46:11.849Z,1.85
2022-08-12T09:48:44.438Z,1.63
2022-08-12T09:51:23.179Z,1.77
2022-08-12T09:54:08.688Z,1.92
2022-08-12T09:57:02.600Z,1.30
2022-08-12T10:00:16.850Z,3.65
2022-08-12T10:02:44.470Z,1.30
2022-08-12T10:05:13.341Z,1.63
2022-08-12T10:07:45.109Z,1.10
2022-08-12T10:10:22.751Z,1.45
2022-08-12T10:13:33.964Z,1.75
2022-08-12T10:16:05.099Z,1.88
2022-08-12T10:18:51.899Z,1.15
2022-08-12T10:21:23.838Z,1.48
2022-08-12T10:23:55.207Z,1.13
2022-08-12T10:26:44.769Z,1.90
2022-08-12T10:30:03.069Z,1.33
2022-08-12T10:32:44.038Z,3.70
2022-08-12T10:35:09.770Z,1.60
2022-08-12T10:38:35.879Z,2.75
2022-08-12T10:40:32.226Z,3.97
2022-08-12T10:43:20.547Z,1.65
2022-08-12T10:45:49.551Z,2.03
2022-08-12T10:48:26.960Z,2.63
2022-08-12T10:52:04.803Z,3.20
2022-08-12T10:54:00.983Z,4.05
2022-08-12T10:56:35.320Z,2.70
2022-08-12T10:59:10.598Z,2.08
2022-08-12T11:04:20.274Z,2.22
2022-08-12T11:04:44.769Z,3.25
2022-08-12T11:08:37.083Z,3.63
2022-08-12T11:10:05.636Z,2.67
2022-08-12T11:12:55.830Z,2.25
2022-08-12T11:15:33.377Z,2.65
2022-08-12T11:18:12.224Z,2.58
2022-08-12T11:20:48.571Z,2.90
2022-08-12T11:23:35.936Z,2.88
2022-08-12T11:26:07.225Z,3.65
2022-08-12T11:28:37.544Z,2.40
2022-08-12T11:31:12.237Z,3.08
2022-08-12T11:34:06.516Z,3.53
2022-08-12T11:36:31.413Z,3.00
2022-08-12T11:39:04.502Z,4.28
2022-08-12T11:41:34.707Z,4.50
2022-08-12T11:44:35.241Z,4.00
2022-08-12T11:46:52.841Z,4.10
2022-08-12T11:49:32.047Z,3.47
2022-08-12T11:52:01.939Z,2.20
2022-08-12T11:54:31.187Z,3.00
2022-08-12T11:57:02.463Z,4.88
2022-08-12T12:02:21.298Z,2.22
2022-08-12T12:04:52.077Z,3.38
2022-08-12T12:07:22.921Z,5.95
2022-08-12T12:10:15.697Z,3.40
2022-08-12T12:12:49.788Z,4.85
2022-08-12T12:15:25.244Z,4.03
2022-08-12T12:18:06.400Z,3.35
2022-08-12T12:20:35.219Z,4.60
2022-08-12T12:23:04.013Z,3.30
2022-08-12T12:26:07.368Z,2.70
2022-08-12T12:28:36.881Z,2.08
2022-08-12T12:31:14.536Z,2.83
2022-08-12T12:33:57.228Z,4.10
2022-08-12T12:36:29.590Z,3.90
2022-08-12T12:39:00.078Z,4.80
2022-08-12T12:42:40.605Z,2.92
2022-08-12T12:44:25.756Z,3.33
2022-08-12T12:46:58.124Z,4.03
2022-08-12T12:49:27.498Z,3.85
2022-08-12T12:52:18.813Z,3.05
2022-08-12T12:54:52.705Z,3.67
2022-08-12T12:57:21.414Z,3.47
2022-08-12T13:00:17.444Z,6.20
2022-08-12T13:02:53.943Z,2.78
2022-08-12T13:05:28.298Z,2.80
2022-08-12T13:08:01.762Z,2.17
2022-08-12T13:10:36.555Z,2.15
2022-08-12T13:14:10.120Z,4.90
2022-08-12T13:15:59.036Z,2.65
2022-08-12T13:18:36.399Z,3.00
2022-08-12T13:21:06.120Z,2.85
2022-08-12T13:23:54.428Z,5.10
2022-08-12T13:26:22.128Z,3.78
2022-08-12T13:28:55.987Z,2.35
2022-08-12T13:31:24.877Z,4.07
2022-08-12T13:34:34.387Z,4.60
2022-08-12T13:36:41.900Z,5.40
2022-08-12T13:39:09.970Z,3.25
2022-08-12T13:41:37.898Z,2.90
2022-08-12T13:44:10.402Z,4.95
2022-08-12T13:46:40.873Z,3.08
2022-08-12T13:49:11.640Z,3.63
2022-08-12T13:51:54.234Z,3.58
2022-08-12T13:54:21.976Z,2.47
2022-08-12T13:56:51.447Z,3.53
2022-08-12T13:59:24.525Z,4.55
2022-08-12T14:01:56.793Z,4.00
2022-08-12T14:04:24.869Z,3.60
2022-08-12T14:06:54.081Z,4.40
2022-08-12T14:09:21.654Z,4.10
2022-08-12T14:11:58.538Z,4.13
2022-08-12T14:14:31.605Z,4.70
2022-08-12T14:17:09.817Z,3.97
2022-08-12T14:20:00.713Z,4.57
2022-08-12T14:22:29.117Z,4.18
2022-08-12T14:24:58.840Z,5.72
2022-08-12T14:28:03.275Z,4.25
2022-08-12T14:30:28.938Z,4.88
2022-08-12T14:32:58.100Z,3.70
2022-08-12T14:35:25.685Z,6.97
2022-08-12T14:37:57.245Z,5.30
2022-08-12T14:40:30.120Z,5.63
2022-08-12T14:42:58.841Z,7.20
2022-08-12T14:45:45.134Z,4.15
2022-08-12T14:48:18.751Z,4.70
2022-08-12T14:51:02.937Z,4.00
2022-08-12T14:59:57.658Z,2.90
2022-08-12T15:02:23.083Z,4.00
2022-08-12T15:04:59.006Z,2.95
2022-08-12T15:07:43.605Z,3.97
2022-08-12T15:10:24.981Z,5.43
2022-08-12T15:13:07.371Z,6.45
2022-08-12T15:15:45.738Z,4.72
2022-08-12T15:18:21.701Z,6.40
2022-08-12T15:23:29.175Z,3.42
2022-08-12T15:26:05.085Z,4.43
2022-08-12T15:28:35.573Z,6.05
2022-08-12T15:31:09.596Z,4.80
2022-08-12T15:33:53.408Z,5.63
2022-08-12T15:36:54.326Z,8.13
2022-08-12T15:39:16.518Z,6.70
2022-08-12T15:41:49.390Z,3.40
2022-08-12T15:44:37.856Z,5.50
2022-08-12T15:47:06.932Z,4.15
2022-08-12T15:49:54.229Z,4.85
2022-08-12T15:52:28.602Z,4.45
2022-08-12T15:55:05.005Z,4.78
2022-08-12T15:57:34.092Z,4.65
2022-08-12T16:00:09.480Z,6.63
2022-08-12T16:02:51.616Z,7.07
2022-08-12T16:06:15.678Z,4.00
2022-08-12T16:08:16.346Z,3.45
2022-08-12T16:10:46.448Z,3.42
2022-08-12T16:13:32.516Z,3.35
2022-08-12T16:16:23.087Z,5.57
2022-08-12T16:18:59.451Z,3.65
2022-08-12T16:21:51.257Z,3.65
2022-08-12T16:24:18.705Z,4.47
2022-08-12T16:26:51.546Z,5.45
2022-08-12T16:29:38.622Z,8.90
2022-08-12T16:32:24.545Z,4.40
2022-08-12T16:35:00.627Z,4.45
2022-08-12T16:38:05.019Z,3.53
2022-08-12T16:40:19.041Z,4.07
2022-08-12T16:42:54.118Z,5.28
2022-08-12T16:46:04.598Z,4.60
2022-08-12T16:48:35.405Z,3.47
2022-08-12T16:51:12.716Z,3.70
2022-08-12T16:53:43.842Z,5.13
2022-08-12T16:56:15.331Z,4.63
2022-08-12T16:58:43.485Z,3.38
2022-08-12T17:01:15.624Z,4.07
2022-08-12T17:03:47.025Z,4.75
2022-08-12T17:06:27.763Z,3.75
2022-08-12T17:09:03.291Z,3.92
2022-08-12T17:11:38.770Z,4.85
2022-08-12T17:14:07.784Z,5.50
2022-08-12T17:16:37.584Z,5.00
2022-08-12T17:19:09.517Z,6.07
2022-08-12T17:21:40.702Z,7.07
2022-08-12T17:24:10.630Z,5.75
2022-08-12T17:26:45.520Z,6.43
2022-08-12T17:29:24.049Z,6.13
2022-08-12T17:32:11.094Z,5.70
2022-08-12T17:34:58.225Z,6.22
2022-08-12T17:37:27.984Z,5.45
2022-08-12T17:40:15.690Z,4.63
2022-08-12T17:42:47.232Z,5.88
2022-08-12T17:45:19.464Z,5.65
2022-08-12T17:48:01.436Z,5.35
2022-08-12T17:50:38.757Z,7.72
2022-08-12T17:53:10.100Z,9.65
2022-08-12T17:55:48.262Z,6.43
2022-08-12T17:58:35.494Z,7.68
2022-08-12T18:01:11.182Z,5.45
2022-08-12T18:03:57.573Z,12.15
2022-08-12T18:06:28.562Z,8.13
2022-08-12T18:08:59.425Z,5.78
2022-08-12T18:12:05.527Z,6.47
2022-08-12T18:14:37.698Z,7.72
2022-08-12T18:17:08.674Z,5.70
2022-08-12T18:20:06.665Z,5.50
2022-08-12T18:22:33.742Z,5.93
2022-08-12T18:25:17.304Z,8.35
2022-08-12T18:28:15.691Z,6.70
2022-08-12T18:30:52.920Z,6.35
2022-08-12T18:33:25.347Z,5.25
2022-08-12T18:35:55.646Z,5.82
2022-08-12T18:38:25.838Z,10.13
2022-08-12T18:41:21.698Z,9.32
2022-08-12T18:44:00.928Z,5.72
2022-08-12T18:46:54.165Z,9.80
2022-08-12T18:49:37.982Z,6.97
2022-08-12T18:52:08.706Z,5.18
2022-08-12T18:54:49.278Z,5.03
2022-08-12T18:58:07.583Z,4.80
2022-08-12T19:00:21.229Z,7.10
2022-08-12T19:02:53.278Z,6.03
2022-08-12T19:05:52.605Z,7.28
2022-08-12T19:08:13.998Z,5.78
2022-08-12T19:10:50.773Z,7.15
2022-08-12T19:13:39.758Z,7.63
2022-08-12T19:16:11.262Z,7.07
2022-08-12T19:18:45.196Z,6.57
2022-08-12T19:21:16.034Z,6.18
2022-08-12T19:24:05.020Z,6.55
2022-08-12T19:26:35.095Z,6.97
2022-08-12T19:29:05.166Z,8.40
2022-08-12T19:31:45.229Z,8.10
2022-08-12T19:38:02.979Z,7.88
2022-08-12T19:40:32.258Z,11.13
2022-08-12T19:43:20.128Z,8.13
2022-08-12T19:45:56.207Z,7.45
2022-08-12T19:48:30.486Z,6.70
2022-08-12T19:50:58.526Z,5.38
2022-08-12T19:53:30.168Z,6.38
2022-08-12T19:56:17.784Z,5.57
2022-08-12T19:58:46.210Z,6.85
2022-08-12T20:01:17.447Z,6.88
2022-08-12T20:03:48.062Z,5.93
2022-08-12T20:06:28.461Z,10.77
2022-08-12T20:08:59.643Z,7.57
2022-08-12T20:12:09.365Z,6.38
2022-08-12T20:14:19.208Z,4.53
2022-08-12T20:16:57.812Z,6.85
2022-08-12T20:20:05.541Z,5.68
2022-08-12T20:22:29.947Z,6.32
2022-08-12T20:25:10.511Z,7.35
2022-08-12T20:28:02.772Z,5.50
2022-08-12T20:30:52.819Z,5.05
2022-08-12T20:33:23.254Z,5.60
2022-08-12T20:36:12.934Z,5.20
2022-08-12T20:38:48.044Z,5.38
2022-08-12T20:41:16.448Z,5.30
2022-08-12T20:43:57.560Z,5.15
2022-08-12T20:46:33.190Z,5.57
2022-08-12T20:49:14.778Z,5.07
2022-08-12T20:51:55.543Z,5.38
2022-08-12T20:54:32.660Z,5.03
2022-08-12T20:57:08.680Z,5.70
2022-08-12T20:59:49.399Z,6.28
2022-08-12T21:02:24.604Z,5.00
2022-08-12T21:05:21.994Z,5.75
2022-08-12T21:07:52.108Z,5.45
2022-08-12T21:10:20.890Z,6.30
2022-08-12T21:12:50.870Z,5.30
2022-08-12T21:15:30.488Z,6.05
2022-08-12T21:18:10.826Z,5.22
2022-08-12T21:21:01.025Z,5.50
2022-08-12T21:23:30.802Z,5.50
2022-08-12T21:26:11.336Z,9.70
2022-08-12T21:28:56.885Z,5.95
2022-08-12T21:32:37.767Z,6.43
2022-08-12T21:34:22.997Z,8.68
2022-08-12T21:36:54.017Z,9.38
2022-08-12T21:39:35.031Z,6.80
2022-08-12T21:42:06.959Z,8.43
2022-08-12T21:45:46.961Z,8.68
2022-08-12T21:47:32.551Z,6.43
2022-08-12T21:50:07.518Z,7.78
2022-08-12T21:52:42.077Z,7.13
2022-08-12T21:55:19.085Z,12.43
2022-08-12T21:57:53.739Z,9.32
2022-08-12T22:00:33.403Z,6.00
2022-08-12T22:04:03.143Z,6.43
2022-08-12T22:06:26.132Z,7.78
2022-08-12T22:09:02.252Z,7.33
2022-08-12T22:11:41.796Z,6.95
2022-08-12T22:14:10.371Z,5.95
2022-08-12T22:16:52.279Z,6.60
2022-08-12T22:19:20.924Z,7.15
2022-08-12T22:21:53.313Z,7.15
2022-08-12T22:24:26.446Z,7.90
2022-08-12T22:27:18.322Z,8.82
2022-08-12T22:30:16.739Z,10.47
2022-08-12T22:32:51.689Z,7.63
2022-08-12T22:35:47.411Z,7.05
2022-08-12T22:38:23.691Z,8.70
2022-08-12T22:40:53.247Z,5.95
2022-08-12T22:44:00.737Z,8.98
2022-08-12T22:46:33.020Z,6.40
2022-08-12T22:49:01.335Z,8.05
2022-08-12T22:51:57.568Z,6.43
2022-08-12T22:54:35.036Z,10.63
2022-08-12T22:59:55.482Z,6.65
2022-08-12T23:02:34.332Z,5.45
2022-08-12T23:05:01.997Z,5.95
2022-08-12T23:07:36.252Z,6.15
2022-08-12T23:10:17.632Z,6.20
2022-08-12T23:13:05.170Z,6.72
2022-08-12T23:15:34.099Z,7.50
2022-08-12T23:18:01.830Z,12.65
2022-08-12T23:20:29.339Z,7.15
2022-08-12T23:23:05.832Z,9.45
2022-08-12T23:25:55.007Z,9.32
2022-08-12T23:31:10.194Z,8.10
2022-08-12T23:34:01.471Z,8.02
2022-08-12T23:36:39.044Z,11.50
2022-08-12T23:40:13.538Z,6.95
2022-08-12T23:42:16.693Z,9.68
2022-08-12T23:44:48.697Z,8.68
2022-08-12T23:47:22.801Z,13.65
2022-08-12T23:49:56.286Z,11.00
2022-08-12T23:52:33.738Z,11.52
2022-08-12T23:55:23.816Z,9.85
2022-08-12T23:58:22.582Z,9.55
